Time;durP1;ratioP1;P1;durP2;ratioP2;P2;SDS_P1;SDS_P2;PMS_P1;PMS_P2;Temp;Humidity;BMP_temperature;BMP_pressure;BME280_temperature;BME280_humidity;BME280_pressure;Samples;Min_cycle;Max_cycle;Signal;HPM_P1;HPM_P2
2022/06/02 00:00:12;;;;;;;12.80;12.40;;;;;;;-141.02;100.00;84876.78;5133531;27;20214;-74
2022/06/02 00:03:05;;;;;;;12.93;12.52;;;;;;;-141.02;100.00;84830.13;5133680;27;20196;-74
2022/06/02 00:05:51;;;;;;;12.80;12.40;;;;;;;-141.02;100.00;84880.66;5133427;27;20224;-74
2022/06/02 00:08:33;;;;;;;12.85;12.45;;;;;;;-141.02;100.00;84682.41;5133268;27;20652;-74
2022/06/02 00:11:12;;;;;;;12.80;12.40;;;;;;;-141.02;100.00;84843.72;5133545;27;20271;-74
2022/06/02 00:13:46;;;;;;;13.02;12.63;;;;;;;-141.02;100.00;84853.44;5133497;27;20286;-74
2022/06/02 00:16:18;;;;;;;13.00;12.60;;;;;;;-141.02;100.00;84795.13;5133134;27;20274;-74
2022/06/02 00:18:51;;;;;;;11.80;11.40;;;;;;;-141.02;100.00;84853.44;5133404;27;20212;-73
2022/06/02 00:21:29;;;;;;;12.27;11.88;;;;;;;-141.02;100.00;84853.44;5133341;27;20192;-74
2022/06/02 00:24:01;;;;;;;12.18;11.77;;;;;;;-141.02;100.00;84869.00;5133471;27;20242;-74
2022/06/02 00:26:45;;;;;;;12.73;12.32;;;;;;;-141.02;100.00;84855.38;5133031;27;20644;-73
2022/06/02 00:29:25;;;;;;;12.90;12.50;;;;;;;-141.02;100.00;84849.56;5133308;28;20181;-74
2022/06/02 00:31:58;;;;;;;11.65;11.25;;;;;;;-141.02;100.00;84869.00;5133221;28;20181;-74
2022/06/02 00:34:35;;;;;;;12.20;11.80;;;;;;;-141.02;100.00;84898.16;5133245;28;20192;-74
2022/06/02 00:37:12;;;;;;;11.93;11.52;;;;;;;-141.02;100.00;84950.63;5133266;27;20184;-74
2022/06/02 00:39:40;;;;;;;11.70;11.30;;;;;;;-141.02;100.00;84993.38;5132788;28;20310;-74
2022/06/02 00:42:29;;;;;;;12.15;11.75;;;;;;;-141.02;100.00;84985.59;5132900;28;20195;-74
2022/06/02 00:44:59;;;;;;;11.73;11.32;;;;;;;-141.02;100.00;85059.47;5133135;28;20192;-74
2022/06/02 00:47:36;;;;;;;11.75;11.35;;;;;;;-141.02;100.00;85102.22;5133470;28;20196;-74
2022/06/02 00:50:10;;;;;;;11.90;11.50;;;;;;;-141.02;100.00;85110.00;5132836;28;20546;-74
2022/06/02 00:52:48;;;;;;;11.23;10.93;;;;;;;-141.02;100.00;85218.84;5133341;28;20276;-74
2022/06/02 00:58:25;;;;;;;11.15;10.85;;;;;;;-141.02;100.00;85417.13;5133669;28;20184;-73
2022/06/02 01:01:01;;;;;;;10.85;10.55;;;;;;;-141.02;100.00;85506.53;5133472;28;20188;-73
2022/06/02 01:03:37;;;;;;;11.30;10.90;;;;;;;-141.02;100.00;85553.19;5135843;27;20729;-73
2022/06/02 01:06:36;;;;;;;11.40;11.00;;;;;;;-141.02;100.00;85595.97;5136554;27;20331;-73
2022/06/02 01:09:18;;;;;;;11.50;11.10;;;;;;;-141.02;100.00;85555.16;5136541;27;20200;-74
2022/06/02 01:11:57;;;;;;;11.50;11.10;;;;;;;-141.02;100.00;85510.44;5136948;27;20216;-74
2022/06/02 01:14:39;;;;;;;11.10;10.80;;;;;;;-141.02;100.00;85691.22;5136805;27;20193;-74
2022/06/02 01:17:19;;;;;;;11.27;10.90;;;;;;;-141.02;100.00;85817.59;5136451;27;20189;-74
2022/06/02 01:20:08;;;;;;;10.55;10.25;;;;;;;-141.02;100.00;85870.09;5136679;27;20299;-74
2022/06/02 01:23:02;;;;;;;11.40;11.00;;;;;;;-141.02;100.00;85922.56;5136641;27;20203;-74
2022/06/02 01:26:01;;;;;;;10.80;10.50;;;;;;;-141.02;100.00;85982.84;5136292;27;20670;-74
2022/06/02 01:28:42;;;;;;;10.70;10.40;;;;;;;-141.02;100.00;86109.22;5102238;27;20291;-75
2022/06/02 01:31:19;;;;;;;10.30;10.00;;;;;;;-141.02;100.00;86332.81;5137062;27;20188;-74
2022/06/02 01:33:54;;;;;;;10.20;9.90;;;;;;;-141.02;100.00;86426.16;5136216;27;20188;-74
2022/06/02 01:36:26;;;;;;;9.82;9.52;;;;;;;-141.02;100.00;86608.94;5137137;27;20249;-74
2022/06/02 01:39:04;;;;;;;9.90;9.60;;;;;;;-141.02;100.00;86748.94;5136345;27;20559;-74
2022/06/02 01:41:40;;;;;;;9.10;8.80;;;;;;;-141.02;100.00;86832.56;5136260;27;20248;-74
2022/06/02 01:44:15;;;;;;;8.70;8.50;;;;;;;-141.02;100.00;87015.38;5136258;27;20188;-74
2022/06/02 01:46:46;;;;;;;9.00;8.70;;;;;;;-141.02;100.00;87153.47;5136198;27;20618;-73
2022/06/02 01:49:34;;;;;;;8.65;8.45;;;;;;;-141.02;100.00;87229.31;5136215;27;20217;-73
2022/06/02 01:52:21;;;;;;;8.30;8.10;;;;;;;-141.02;100.00;87338.22;5135848;27;20185;-73
2022/06/02 01:55:03;;;;;;;8.23;8.02;;;;;;;-141.02;100.00;87449.09;5136037;27;20212;-73
2022/06/02 01:57:42;;;;;;;7.85;7.65;;;;;;;-141.02;100.00;87526.91;5136028;27;20189;-73
2022/06/02 02:00:13;;;;;;;7.60;7.40;;;;;;;-141.02;100.00;87583.31;5135589;27;20685;-74
2022/06/02 02:03:06;;;;;;;7.60;7.40;;;;;;;-141.02;100.00;87711.69;5135876;27;20275;-73
2022/06/02 02:05:44;;;;;;;7.80;7.60;;;;;;;-141.02;100.00;87828.41;5131823;27;20311;-73
2022/06/02 02:08:35;;;;;;;7.45;7.25;;;;;;;-141.02;100.00;87933.44;5135474;27;20190;-74
2022/06/02 02:11:28;;;;;;;7.00;6.80;;;;;;;-141.02;100.00;87976.25;5135411;27;20245;-73
2022/06/02 02:14:06;;;;;;;7.22;7.03;;;;;;;-141.02;100.00;88050.16;5134633;27;20264;-73
2022/06/02 02:16:45;;;;;;;7.47;7.28;;;;;;;-141.02;100.00;88050.16;5135377;27;20661;-73
2022/06/02 02:19:26;;;;;;;7.22;7.03;;;;;;;-141.02;100.00;88116.31;5135209;27;20670;-73
2022/06/02 02:22:06;;;;;;;7.10;6.90;;;;;;;-141.02;100.00;88116.31;5135611;27;20184;-72
2022/06/02 02:24:50;;;;;;;7.20;7.00;;;;;;;-141.02;100.00;88122.16;5135154;27;20638;-74
2022/06/02 02:27:23;;;;;;;6.93;6.72;;;;;;;-141.02;100.00;88108.53;5135513;27;20196;-74
2022/06/02 02:30:02;;;;;;;7.10;6.90;;;;;;;-141.02;100.00;88135.75;5135113;27;20189;-74
2022/06/02 02:32:37;;;;;;;7.50;7.30;;;;;;;-141.02;100.00;88112.41;5135017;27;20671;-74
2022/06/02 02:35:12;;;;;;;7.20;7.00;;;;;;;-141.02;100.00;88139.66;5135321;27;20198;-73
2022/06/02 02:37:49;;;;;;;7.20;7.00;;;;;;;-141.02;100.00;88221.34;5135236;27;20185;-74
2022/06/02 02:40:22;;;;;;;6.90;6.70;;;;;;;-141.02;100.00;88252.47;5135156;27;20216;-74
2022/06/02 02:42:56;;;;;;;7.10;6.90;;;;;;;-141.02;100.00;88244.69;5134858;27;20195;-74
2022/06/02 02:45:44;;;;;;;7.00;6.80;;;;;;;-141.02;100.00;88252.47;5134827;27;20220;-74
2022/06/02 02:48:21;;;;;;;7.30;7.10;;;;;;;-141.02;100.00;88250.53;5134700;27;20203;-74
2022/06/02 02:51:03;;;;;;;7.40;7.20;;;;;;;-141.02;100.00;88221.34;5134988;27;20189;-73
2022/06/02 02:53:35;;;;;;;7.20;7.00;;;;;;;-141.02;100.00;88151.31;5134613;27;20568;-74
2022/06/02 02:56:11;;;;;;;7.20;7.00;;;;;;;-141.02;100.00;88221.34;5134578;27;20272;-74
2022/06/02 02:58:44;;;;;;;7.20;7.00;;;;;;;-141.02;100.00;88178.56;5134851;27;20187;-74
2022/06/02 03:01:18;;;;;;;6.80;6.60;;;;;;;-141.02;100.00;88217.47;5134433;27;20213;-74
2022/06/02 03:03:53;;;;;;;6.88;6.68;;;;;;;-141.02;100.00;88240.81;5134408;27;20185;-74
2022/06/02 03:06:26;;;;;;;6.90;6.70;;;;;;;-141.02;100.00;88264.16;5134573;27;20238;-74
2022/06/02 03:09:03;;;;;;;6.80;6.60;;;;;;;-141.02;100.00;88252.47;5134330;27;20547;-74
2022/06/02 03:11:57;;;;;;;7.13;6.93;;;;;;;-141.02;100.00;88161.06;5134282;27;20202;-74
2022/06/02 03:14:40;;;;;;;6.85;6.65;;;;;;;-141.02;100.00;88147.44;5134499;27;20276;-74
2022/06/02 03:17:22;;;;;;;6.70;6.50;;;;;;;-141.02;100.00;88100.75;5134161;27;20180;-74
2022/06/02 03:19:59;;;;;;;7.70;7.50;;;;;;;-141.02;100.00;88015.16;5134057;27;20220;-74
2022/06/02 03:22:39;;;;;;;8.50;8.30;;;;;;;-141.02;100.00;87859.53;5134033;27;20231;-74
2022/06/02 03:25:12;;;;;;;9.00;8.70;;;;;;;-141.02;100.00;87779.75;5133780;27;20677;-74
2022/06/02 03:27:48;;;;;;;9.32;9.02;;;;;;;-141.02;100.00;87665.00;5133968;27;20562;-73
2022/06/02 03:30:26;;;;;;;9.32;9.02;;;;;;;-141.02;100.00;87610.53;5134202;27;20185;-72
2022/06/02 03:33:14;;;;;;;9.50;9.20;;;;;;;-141.02;100.00;87497.72;5133872;27;20569;-74
2022/06/02 03:35:53;;;;;;;10.23;9.93;;;;;;;-141.02;100.00;87268.22;5134091;27;20185;-73
2022/06/02 03:38:41;;;;;;;12.40;12.00;;;;;;;-141.02;100.00;86898.69;5134056;27;20263;-74
2022/06/02 03:41:23;;;;;;;12.52;12.13;;;;;;;-141.02;100.00;86564.22;5133985;27;20216;-74
2022/06/02 03:43:58;;;;;;;12.35;11.95;;;;;;;-141.02;100.00;86327.00;5133665;27;20662;-74
2022/06/02 03:46:35;;;;;;;13.45;12.95;;;;;;;-141.02;100.00;86103.38;5133637;27;20271;-74
2022/06/02 03:49:26;;;;;;;14.00;13.50;;;;;;;-141.02;100.00;85938.13;5133615;27;20189;-74
2022/06/02 03:52:03;;;;;;;13.48;13.07;;;;;;;-141.02;100.00;85767.03;5133475;27;20188;-74
2022/06/02 03:54:48;;;;;;;13.45;13.05;;;;;;;-141.02;100.00;85594.03;5133817;27;20215;-74
2022/06/02 03:57:54;;;;;;;13.60;13.20;;;;;;;-141.02;100.00;85522.09;5133796;27;20630;-74
2022/06/02 04:00:25;;;;;;;13.82;13.43;;;;;;;-141.02;100.00;85374.38;5117798;27;20224;-74
2022/06/02 04:02:54;;;;;;;14.55;14.05;;;;;;;-141.02;100.00;85263.56;5133335;27;20694;-75
2022/06/02 04:05:42;;;;;;;15.07;14.57;;;;;;;-141.02;100.00;85067.25;5133453;27;20276;-75
2022/06/02 04:08:35;;;;;;;15.30;14.80;;;;;;;-141.02;100.00;84907.88;5133569;27;20275;-74
2022/06/02 04:11:17;;;;;;;16.55;15.95;;;;;;;-141.02;100.00;84674.63;5133021;27;20673;-74
2022/06/02 04:13:54;;;;;;;16.70;16.10;;;;;;;-141.02;100.00;84412.28;5133197;27;20181;-74
2022/06/02 04:16:54;;;;;;;17.65;16.95;;;;;;;-141.02;92.41;84214.06;5133100;27;20676;-75
2022/06/02 04:22:44;;;;;;;17.45;16.77;;;;;;;-141.02;92.03;84072.22;5133488;27;20391;-74
2022/06/02 04:25:26;;;;;;;18.98;18.17;;;;;;;-141.02;83.74;83870.13;5133359;27;20194;-74
2022/06/02 04:28:07;;;;;;;18.30;17.60;;;;;;;-141.02;77.15;83811.84;5133033;27;20654;-75
2022/06/02 04:30:43;;;;;;;18.10;17.40;;;;;;;-141.02;73.67;83679.72;5133014;27;20658;-74
2022/06/02 04:33:17;;;;;;;18.67;17.98;;;;;;;-141.02;76.10;83648.63;5132973;28;20188;-74
2022/06/02 04:35:54;;;;;;;18.30;17.60;;;;;;;-141.02;76.22;83664.19;5133296;27;20588;-75
2022/06/02 04:38:31;;;;;;;17.38;16.77;;;;;;;-141.02;76.31;83605.91;5135827;27;20188;-74
2022/06/02 04:41:21;;;;;;;17.10;16.50;;;;;;;-141.02;71.09;83508.75;5137169;27;20764;-74
2022/06/02 04:43:58;;;;;;;17.40;16.70;;;;;;;-141.02;73.44;83485.44;5137165;27;20188;-75
2022/06/02 04:46:37;;;;;;;17.00;16.40;;;;;;;-141.02;74.54;83510.69;5137406;27;20271;-74
2022/06/02 04:49:13;;;;;;;17.30;16.60;;;;;;;-141.02;78.46;83600.06;5137357;27;20180;-75
2022/06/02 04:51:50;;;;;;;16.80;16.20;;;;;;;-141.02;85.24;83658.34;5137316;27;20184;-75
2022/06/02 04:54:29;;;;;;;16.27;15.68;;;;;;;-141.02;83.97;83613.66;5137809;27;20271;-75
2022/06/02 04:57:03;;;;;;;16.58;15.98;;;;;;;-141.02;81.41;83578.69;5136923;27;20227;-74
2022/06/02 04:59:38;;;;;;;16.75;16.15;;;;;;;-141.02;96.91;83745.78;5136887;27;20721;-74
2022/06/02 05:02:15;;;;;;;14.77;14.27;;;;;;;-141.02;100.00;83804.06;5137126;27;20192;-75
2022/06/02 05:04:52;;;;;;;14.00;13.50;;;;;;;-141.02;100.00;83823.50;5137075;27;20206;-75
2022/06/02 05:07:32;;;;;;;14.23;13.73;;;;;;;-141.02;100.00;83807.97;5136550;27;20231;-75
2022/06/02 05:10:12;;;;;;;14.70;14.20;;;;;;;-141.02;100.00;83854.59;5136626;27;20185;-74
2022/06/02 05:12:57;;;;;;;14.75;14.25;;;;;;;-141.02;100.00;83936.19;5136984;27;20315;-75
2022/06/02 05:15:53;;;;;;;14.30;13.80;;;;;;;-141.02;100.00;83874.03;5136565;27;20223;-74
2022/06/02 05:18:51;;;;;;;15.02;14.52;;;;;;;-141.02;100.00;83809.91;5136785;27;20192;-75
2022/06/02 05:21:46;;;;;;;15.75;15.15;;;;;;;-141.02;97.70;83743.84;5131217;27;20230;-75
2022/06/02 05:24:41;;;;;;;15.88;15.27;;;;;;;-141.02;98.64;83714.69;5137270;27;20196;-74
2022/06/02 05:27:37;;;;;;;16.05;15.45;;;;;;;-141.02;96.61;83759.38;5136690;27;20281;-74
2022/06/02 05:30:22;;;;;;;15.63;15.02;;;;;;;-141.02;97.35;83726.34;5136311;27;20188;-74
2022/06/02 05:33:30;;;;;;;15.00;14.50;;;;;;;-141.02;96.60;83736.06;5136278;27;20189;-74
2022/06/02 05:36:38;;;;;;;16.05;15.45;;;;;;;-141.02;95.33;83627.25;5108444;27;20745;-75
2022/06/02 05:39:42;;;;;;;16.00;15.40;;;;;;;-141.02;96.33;83703.03;5120640;27;20236;-74
2022/06/02 05:42:20;;;;;;;15.93;15.32;;;;;;;-141.02;96.45;83710.81;5136089;27;20276;-74
2022/06/02 05:45:08;;;;;;;15.50;14.90;;;;;;;-141.02;95.87;83714.69;5136056;27;20192;-74
2022/06/02 05:47:47;;;;;;;15.77;15.18;;;;;;;-141.02;93.68;83677.78;5136263;27;20188;-74
2022/06/02 05:50:28;;;;;;;15.55;14.95;;;;;;;-141.02;95.57;83714.69;5135860;27;20188;-74
2022/06/02 05:53:04;;;;;;;15.88;15.27;;;;;;;-141.02;98.26;83695.28;5135848;27;20609;-75
2022/06/02 05:55:46;;;;;;;15.93;15.32;;;;;;;-141.02;95.01;83652.53;5135814;27;20650;-74
2022/06/02 05:58:44;;;;;;;16.20;15.60;;;;;;;-141.02;89.67;83613.66;5136068;27;20245;-74
2022/06/02 06:01:23;;;;;;;16.85;16.20;;;;;;;-141.02;89.36;83644.75;5135891;27;20583;-74
2022/06/02 06:04:21;;;;;;;16.48;15.88;;;;;;;-141.02;89.71;83646.69;5135974;27;20189;-75
2022/06/02 06:06:53;;;;;;;16.88;16.17;;;;;;;-141.02;91.32;84076.09;5135483;27;20224;-75
2022/06/02 06:09:34;;;;;;;16.48;15.88;;;;;;;-141.02;93.71;83627.25;5135862;27;20549;-75
2022/06/02 06:12:31;;;;;;;16.60;16.00;;;;;;;-141.02;93.37;83617.56;5135435;27;20201;-75
2022/06/02 06:15:08;;;;;;;17.10;16.40;;;;;;;-141.02;88.98;83427.16;5133080;27;20188;-74
2022/06/02 06:17:43;;;;;;;16.60;16.00;;;;;;;-141.02;89.73;83570.91;5135427;27;20706;-74
2022/06/02 06:20:17;;;;;;;17.20;16.50;;;;;;;-141.02;87.09;83588.41;5135219;27;20192;-74
2022/06/02 06:23:13;;;;;;;17.13;16.48;;;;;;;-141.02;85.39;83516.53;5135631;27;20212;-74
2022/06/02 06:25:55;;;;;;;17.35;16.65;;;;;;;-141.02;84.46;83500.97;5135526;27;20185;-75
2022/06/02 06:28:23;;;;;;;17.23;16.52;;;;;;;-141.02;86.11;83522.34;5135130;27;20220;-75
2022/06/02 06:31:01;;;;;;;17.02;16.42;;;;;;;-141.02;86.58;83508.75;5135108;27;20196;-74
2022/06/02 06:33:46;;;;;;;17.00;16.40;;;;;;;-141.02;88.00;83561.22;5135075;27;20275;-74
2022/06/02 06:36:38;;;;;;;16.60;16.00;;;;;;;-141.02;84.69;83549.56;5135295;27;20212;-75
2022/06/02 06:39:10;;;;;;;16.95;16.35;;;;;;;-141.02;86.40;83514.59;5124978;27;20279;-75
2022/06/02 06:42:03;;;;;;;16.52;15.93;;;;;;;-141.02;88.28;84662.97;5135123;27;20301;-75
2022/06/02 06:44:40;;;;;;;16.10;15.50;;;;;;;-141.02;87.66;83568.97;5134817;27;20636;-74
2022/06/02 06:47:13;;;;;;;16.38;15.77;;;;;;;-141.02;88.78;83543.72;5135119;27;20184;-74
2022/06/02 06:49:56;;;;;;;17.10;16.40;;;;;;;-141.02;86.22;83469.91;5135044;27;20188;-76
2022/06/02 06:52:37;;;;;;;17.17;16.48;;;;;;;-141.02;87.41;83497.09;5134957;27;20276;-73
2022/06/02 06:55:15;;;;;;;16.80;16.10;;;;;;;-141.02;86.33;83487.38;5134626;27;20181;-75
2022/06/02 06:57:49;;;;;;;16.65;16.05;;;;;;;-141.02;85.10;83452.41;5134844;27;20317;-74
2022/06/02 07:00:22;;;;;;;16.83;16.23;;;;;;;-141.02;87.61;83458.25;5134226;27;20184;-75
2022/06/02 07:03:03;;;;;;;17.02;16.38;;;;;;;-141.02;85.03;83450.47;5134434;27;20189;-74
2022/06/02 07:05:36;;;;;;;16.83;16.13;;;;;;;-141.02;87.84;83528.19;5134292;27;20247;-75
2022/06/02 07:08:12;;;;;;;17.38;16.67;;;;;;;-141.02;87.99;83462.13;5134324;27;20271;-74
2022/06/02 07:10:48;;;;;;;17.75;17.05;;;;;;;-141.02;81.67;83384.41;5134670;27;20267;-76
2022/06/02 07:13:26;;;;;;;17.63;16.92;;;;;;;-141.02;82.75;83368.88;5134252;27;20194;-76
2022/06/02 07:15:59;;;;;;;17.60;16.90;;;;;;;-141.02;80.30;83341.69;5134216;27;20663;-74
2022/06/02 07:18:41;;;;;;;17.50;16.80;;;;;;;-141.02;82.19;83337.78;5134151;27;20184;-75
2022/06/02 07:21:18;;;;;;;17.95;17.25;;;;;;;-141.02;79.21;83229.00;5134261;27;20215;-74
2022/06/02 07:23:57;;;;;;;17.75;17.05;;;;;;;-141.02;78.51;83240.66;5134047;27;20196;-75
2022/06/02 07:26:39;;;;;;;17.83;17.13;;;;;;;-141.02;74.89;83178.50;5133996;27;20185;-76
2022/06/02 07:29:16;;;;;;;17.27;16.58;;;;;;;-141.02;76.57;83230.94;5134181;27;20188;-74
2022/06/02 07:32:07;;;;;;;18.50;17.70;;;;;;;-141.02;75.77;83199.84;5133931;27;20191;-75
2022/06/02 07:34:57;;;;;;;17.63;16.92;;;;;;;-141.02;77.26;83265.91;5133869;27;20189;-74
2022/06/02 07:37:32;;;;;;;17.58;16.88;;;;;;;-141.02;79.61;83298.94;5133740;27;20560;-76
2022/06/02 07:40:13;;;;;;;17.95;17.17;;;;;;;-141.02;76.54;83223.16;5134120;27;20570;-74
2022/06/02 07:43:16;;;;;;;17.33;16.63;;;;;;;-141.02;75.66;83178.50;5133646;27;20705;-75
2022/06/02 07:45:55;;;;;;;18.00;17.20;;;;;;;-141.02;70.25;83093.00;5130414;27;20285;-76
2022/06/02 07:49:05;;;;;;;17.85;17.05;;;;;;;-141.02;74.55;83178.50;5133572;27;20195;-75
2022/06/02 07:51:41;;;;;;;18.13;17.33;;;;;;;-141.02;70.25;83028.91;5133831;27;20244;-75
2022/06/02 07:54:31;;;;;;;18.40;17.60;;;;;;;-141.02;70.16;83019.19;5133531;27;20741;-75
2022/06/02 07:57:11;;;;;;;18.08;17.30;;;;;;;-141.02;68.44;83030.84;5134715;27;20249;-74
2022/06/02 08:00:02;;;;;;;18.10;17.30;;;;;;;-141.02;68.80;82984.22;5133754;27;20181;-75
2022/06/02 08:02:49;;;;;;;18.13;17.33;;;;;;;-141.02;68.04;82933.72;5133380;27;20237;-75
2022/06/02 08:05:31;;;;;;;18.52;17.73;;;;;;;-141.02;69.80;82910.41;5133124;27;20638;-76
2022/06/02 08:08:03;;;;;;;18.40;17.60;;;;;;;-141.02;69.44;82918.19;5133603;27;20191;-75
2022/06/02 08:10:46;;;;;;;18.20;17.40;;;;;;;-141.02;67.02;82875.44;5133596;27;20268;-75
2022/06/02 08:13:23;;;;;;;18.83;18.02;;;;;;;-141.02;65.52;82739.47;5132742;27;20188;-75
2022/06/02 08:15:56;;;;;;;18.67;17.88;;;;;;;-141.02;61.94;82661.78;5133519;27;20271;-75
2022/06/02 08:18:55;;;;;;;18.58;17.77;;;;;;;-141.02;61.84;82677.31;5133189;27;20646;-76
2022/06/02 08:21:28;;;;;;;18.55;17.75;;;;;;;-141.02;61.98;82630.72;5133013;27;20719;-75
2022/06/02 08:24:13;;;;;;;18.42;17.63;;;;;;;-141.02;66.85;82706.47;5133458;27;20219;-75
2022/06/02 08:26:49;;;;;;;18.25;17.45;;;;;;;-141.02;64.10;82648.19;5133392;27;20194;-76
2022/06/02 08:29:29;;;;;;;18.20;17.40;;;;;;;-141.02;62.40;82622.94;5133272;27;20219;-76
2022/06/02 08:32:20;;;;;;;17.85;17.10;;;;;;;-141.02;59.64;82576.31;5133323;27;20252;-74
2022/06/02 08:35:04;;;;;;;18.05;17.25;;;;;;;-141.02;60.36;82549.13;5133332;27;20196;-76
2022/06/02 08:37:42;;;;;;;19.25;18.35;;;;;;;-141.02;59.82;82537.47;5133246;28;20241;-76
2022/06/02 08:40:41;;;;;;;18.05;17.25;;;;;;;-141.02;60.02;82469.50;5133203;28;20241;-76
2022/06/02 08:43:43;;;;;;;18.13;17.33;;;;;;;-141.02;58.34;82473.38;5133232;28;20188;-76
2022/06/02 08:46:49;;;;;;;18.05;17.25;;;;;;;-141.02;57.56;82455.91;5127803;27;20290;-75
2022/06/02 08:49:39;;;;;;;18.10;17.30;;;;;;;-141.02;61.71;82304.41;5129748;28;20188;-76
2022/06/02 08:52:45;;;;;;;18.45;17.65;;;;;;;-141.02;59.09;82448.13;5133134;28;20251;-73
2022/06/02 08:55:49;;;;;;;18.45;17.65;;;;;;;-141.02;60.67;82448.13;5133135;27;20196;-75
2022/06/02 08:58:46;;;;;;;18.80;18.00;;;;;;;-141.02;58.42;82444.25;5133085;28;20191;-75
2022/06/02 09:01:26;;;;;;;18.90;18.10;;;;;;;-141.02;58.08;82339.38;5132946;27;20304;-77
2022/06/02 09:04:25;;;;;;;18.70;17.90;;;;;;;-141.02;56.04;82281.13;5132970;28;20188;-77
2022/06/02 09:07:19;;;;;;;19.10;18.23;;;;;;;-141.02;56.70;82263.63;5132369;27;20267;-78
2022/06/02 09:10:19;;;;;;;18.95;18.13;;;;;;;-141.02;58.46;82257.81;5132923;28;20180;-77
2022/06/02 09:13:33;;;;;;;18.77;17.98;;;;;;;-141.02;56.29;82240.31;5115724;27;20195;-76
2022/06/02 09:16:22;;;;;;;19.08;18.25;;;;;;;-141.02;58.56;82277.22;5095867;27;20303;-76
2022/06/02 09:19:22;;;;;;;18.98;18.17;;;;;;;-141.02;55.73;82151.00;5132621;28;20276;-76
2022/06/02 09:22:35;;;;;;;18.90;18.10;;;;;;;-141.02;52.65;82059.72;5132759;27;20227;-76
2022/06/02 09:25:22;;;;;;;18.77;17.98;;;;;;;-141.02;53.51;82036.41;5099406;27;20721;-76
2022/06/02 09:28:31;;;;;;;18.58;17.77;;;;;;;-141.02;53.49;81985.91;5136724;27;20223;-76
2022/06/02 09:31:17;;;;;;;19.38;18.48;;;;;;;-141.02;53.04;82048.06;5136322;27;20650;-75
2022/06/02 09:34:04;;;;;;;20.05;19.15;;;;;;;-141.02;54.09;82040.28;5136612;27;20267;-76
2022/06/02 09:37:11;;;;;;;20.13;19.23;;;;;;;-141.02;52.96;81931.53;5136528;27;20275;-77
2022/06/02 09:40:07;;;;;;;20.67;19.77;;;;;;;-141.02;53.55;81931.53;5136171;27;20185;-77
2022/06/02 09:43:06;;;;;;;20.02;19.13;;;;;;;-141.02;51.91;81919.91;5106699;27;20224;-75
2022/06/02 09:45:46;;;;;;;20.10;19.20;;;;;;;-141.02;52.74;81892.72;5135979;27;20283;-77
2022/06/02 09:48:27;;;;;;;19.50;18.63;;;;;;;-141.02;54.52;81985.91;5136294;27;20188;-76
2022/06/02 09:51:12;;;;;;;18.95;18.15;;;;;;;-141.02;52.94;81925.72;5135945;27;20185;-75
2022/06/02 09:54:03;;;;;;;19.45;18.65;;;;;;;-141.02;52.65;81908.25;5136189;27;20612;-75
2022/06/02 10:00:22;;;;;;;19.10;18.20;;;;;;;-141.02;51.43;81873.28;5072514;28;20279;-76
2022/06/02 10:03:12;;;;;;;19.23;18.33;;;;;;;-141.02;50.29;81640.28;5072406;28;20218;-75
2022/06/02 10:06:03;;;;;;;18.60;17.80;;;;;;;-141.02;49.82;81774.25;5072305;28;20325;-77
2022/06/02 10:08:42;;;;;;;21.90;20.80;;;;;;;-141.02;50.58;81764.53;5072396;28;20189;-74
2022/06/02 10:11:20;;;;;;;19.27;18.38;;;;;;;-141.02;50.87;81768.44;5073152;28;20233;-72
2022/06/02 10:14:14;;;;;;;18.23;17.42;;;;;;;-141.02;51.47;81853.88;5072253;28;20609;-74
2022/06/02 10:17:25;;;;;;;18.90;18.10;;;;;;;-141.02;49.89;81679.09;5072285;28;20269;-78
2022/06/02 10:20:23;;;;;;;19.73;18.83;;;;;;;-141.02;49.08;81651.91;5063998;28;20281;-77
2022/06/02 10:22:59;;;;;;;19.90;19.00;;;;;;;-141.02;50.39;81648.03;5037980;28;20241;-77
2022/06/02 10:25:59;;;;;;;20.25;19.35;;;;;;;-141.02;49.73;81593.66;5072249;28;20202;-77
2022/06/02 10:28:53;;;;;;;19.80;18.90;;;;;;;-141.02;49.83;81655.81;5071947;28;20321;-76
2022/06/02 10:31:50;;;;;;;19.70;18.80;;;;;;;-141.02;48.35;81516.00;5106519;27;20200;-76
2022/06/02 10:34:44;;;;;;;20.25;19.33;;;;;;;-141.02;48.54;81554.84;5134761;27;20727;-77
2022/06/02 10:37:38;;;;;;;19.52;18.63;;;;;;;-141.02;49.54;81543.19;5135017;27;20639;-77
2022/06/02 10:40:15;;;;;;;19.08;18.17;;;;;;;-141.02;48.30;81543.19;5135285;27;20191;-76
2022/06/02 10:43:07;;;;;;;19.73;18.83;;;;;;;-141.02;48.90;81523.75;5134863;27;20212;-76
2022/06/02 10:45:58;;;;;;;19.20;18.30;;;;;;;-141.02;48.07;81527.66;5134845;27;20272;-76
2022/06/02 10:48:59;;;;;;;18.65;17.85;;;;;;;-141.02;49.26;81583.97;5135081;27;20216;-73
2022/06/02 10:52:06;;;;;;;18.70;17.90;;;;;;;-141.02;49.05;81585.91;5134704;27;20199;-76
2022/06/02 10:54:59;;;;;;;18.67;17.88;;;;;;;-141.02;49.80;81632.50;5134642;27;20188;-76
2022/06/02 10:57:57;;;;;;;18.55;17.75;;;;;;;-141.02;48.24;81523.75;5134637;27;20193;-77
2022/06/02 11:00:39;;;;;;;18.83;18.02;;;;;;;-141.02;47.95;81380.09;5134598;27;20238;-77
2022/06/02 11:03:44;;;;;;;18.88;18.08;;;;;;;-141.02;49.48;81547.06;5134768;27;20249;-76
2022/06/02 11:06:53;;;;;;;18.95;18.15;;;;;;;-141.02;48.35;81550.94;5132374;27;20751;-76
2022/06/02 11:09:59;;;;;;;19.02;18.23;;;;;;;-141.02;49.92;81640.28;5134373;27;20189;-77
2022/06/02 11:13:11;;;;;;;18.95;18.15;;;;;;;-141.02;48.62;81554.84;5134695;27;20242;-76
2022/06/02 11:16:13;;;;;;;19.25;18.45;;;;;;;-141.02;47.53;81407.25;5096347;27;20294;-76
2022/06/02 11:19:13;;;;;;;19.25;18.45;;;;;;;-141.02;47.82;81438.34;5108300;27;20187;-77
2022/06/02 11:22:18;;;;;;;19.60;18.70;;;;;;;-141.02;48.13;81422.81;5134027;27;20192;-77
2022/06/02 11:25:33;;;;;;;19.90;19.00;;;;;;;-141.02;47.75;81329.59;5110164;27;20197;-76
2022/06/02 11:28:29;;;;;;;19.67;18.77;;;;;;;-141.02;48.47;81302.41;5134339;27;20199;-76
2022/06/02 11:31:19;;;;;;;20.50;19.60;;;;;;;-141.02;47.94;81364.56;5133990;27;20303;-76
2022/06/02 11:34:02;;;;;;;19.77;18.88;;;;;;;-141.02;48.32;81395.63;5133943;27;20193;-77
2022/06/02 11:37:07;;;;;;;20.27;19.38;;;;;;;-141.02;47.73;81356.78;5133855;27;20220;-77
2022/06/02 11:40:13;;;;;;;19.17;18.38;;;;;;;-141.02;47.88;81319.91;5134029;27;20592;-77
2022/06/02 11:42:56;;;;;;;18.40;17.60;;;;;;;-141.02;46.79;81228.63;5134506;27;20303;-77
2022/06/02 11:45:47;;;;;;;18.67;17.88;;;;;;;-141.02;44.76;81125.75;5134251;27;20199;-77
2022/06/02 11:48:35;;;;;;;18.02;17.23;;;;;;;-141.02;47.52;81224.75;5133958;27;20212;-76
2022/06/02 11:51:57;;;;;;;19.48;18.58;;;;;;;-141.02;45.32;81081.09;5133969;27;20184;-77
2022/06/02 11:54:49;;;;;;;18.63;17.83;;;;;;;-141.02;45.00;81100.50;5070532;28;20202;-77
2022/06/02 11:57:38;;;;;;;19.27;18.48;;;;;;;-141.02;45.90;81061.66;5126586;27;20279;-75
2022/06/02 12:00:47;;;;;;;18.55;17.75;;;;;;;-141.02;45.28;81077.22;5133774;27;20304;-77
2022/06/02 12:03:40;;;;;;;19.38;18.58;;;;;;;-141.02;45.85;81205.34;5133311;27;20657;-77
2022/06/02 12:06:33;;;;;;;19.58;18.77;;;;;;;-141.02;48.04;81444.16;5134029;27;20300;-76
2022/06/02 12:09:37;;;;;;;19.52;18.73;;;;;;;-141.02;49.40;81527.66;5133599;27;20184;-77
2022/06/02 12:12:24;;;;;;;20.38;19.48;;;;;;;-141.02;49.88;81547.06;5091604;27;20240;-77
2022/06/02 12:15:29;;;;;;;20.35;19.45;;;;;;;-141.02;50.98;81620.84;5133534;27;20216;-77
2022/06/02 12:18:26;;;;;;;19.30;18.50;;;;;;;-141.02;52.35;81669.41;5131581;27;20202;-77
2022/06/02 12:21:33;;;;;;;20.20;19.30;;;;;;;-141.02;53.76;81754.84;5116356;27;20199;-76
2022/06/02 12:24:19;;;;;;;19.45;18.65;;;;;;;-141.02;54.67;81842.22;5133392;27;20216;-76
2022/06/02 12:27:05;;;;;;;20.00;19.10;;;;;;;-141.02;54.32;81822.81;5133079;27;20662;-76
2022/06/02 12:29:49;;;;;;;19.27;18.48;;;;;;;-141.02;56.20;81846.09;5133631;27;20194;-76
2022/06/02 12:32:35;;;;;;;19.63;18.77;;;;;;;-141.02;59.67;81974.28;5133312;27;20671;-77